ENRA/MQN METAR and TAF weather

Enter ICAO airport designator
Station Type Date Time Source
ENRA METAR 2021/05/14 07:50 UTC NOAA

ENRA 140750Z 08009KT 9999 BKN033 09/03 Q1012


Station Type Date Time Source
ENRA Decoded METAR 2021/05/14 07:50 UTC NOAA

Mo I Rana / Rossvoll, Norway (ENRA) 66-22N 014-18E 70M
May 14, 2021 - 03:50 AM EDT / 2021.05.14 0750 UTC
Wind: from the E (080 degrees) at 10 MPH (9 KT):0
Visibility: greater than 7 mile(s):0
Sky conditions: mostly cloudy
Temperature: 48 F (9 C)
Dew Point: 37 F (3 C)
Relative Humidity: 66%
Pressure (altimeter): 29.88 in. Hg (1012 hPa)
ob: ENRA 140750Z 08009KT 9999 BKN033 09/03 Q1012
cycle: 8

Station Type Date Time Source
ENRA TAF UTC NOAA

Error!

Example: see airport list